Orbital elements of FENGYUN 1C DEB
| Launched | 9 May 1999 |
| Flight ended | – |
| Launch site | Taiyuan Space Center, PRC |
| Owner | People's Republic of China |
| NORAD ID | 31311 |
| Date fetched |
Epoch osculation |
Inc. [°] |
Ecc. | RA asc node [hr] |
Arg Peri. [°] |
Mean anom [°] |
Mean motion [rev/day] |
Abs. mag |
| Date fetched |
Epoch osculation |
Inc. [°] |
Ecc. | RA asc node [hr] |
Arg Peri. [°] |
Mean anom [°] |
Mean motion [rev/day] |
Abs. mag |
| 2026 May 08 17:57 | 2026 May 05 12:31:32 | 98.8424 | 0.00173 | 14.2867 | 28.8194 | 345.3370 | 14.31057 | – |
| 2026 May 07 17:58 | 2026 May 05 12:31:32 | 98.8424 | 0.00173 | 14.2867 | 28.8194 | 345.3370 | 14.31057 | – |
| 2026 May 06 17:57 | 2026 May 05 12:31:32 | 98.8424 | 0.00173 | 14.2867 | 28.8194 | 345.3370 | 14.31057 | – |
| 2026 May 05 17:57 | 2026 May 05 12:31:32 | 98.8424 | 0.00173 | 14.2867 | 28.8194 | 345.3370 | 14.31057 | – |
| 2026 May 04 17:57 | 2026 Apr 30 05:10:55 | 98.8431 | 0.00180 | 13.9268 | 44.8209 | 345.3370 | 14.31057 | – |
| 2026 May 03 17:57 | 2026 Apr 30 05:10:55 | 98.8431 | 0.00180 | 13.9268 | 44.8209 | 345.3370 | 14.31057 | – |
| 2026 May 02 17:57 | 2026 Apr 30 05:10:55 | 98.8431 | 0.00180 | 13.9268 | 44.8209 | 345.3370 | 14.31057 | – |
| 2026 May 01 17:56 | 2026 Apr 30 05:10:55 | 98.8431 | 0.00180 | 13.9268 | 44.8209 | 345.3370 | 14.31057 | – |
| 2026 Apr 30 17:56 | 2026 Apr 30 05:10:55 | 98.8431 | 0.00180 | 13.9268 | 44.8209 | 345.3370 | 14.31057 | – |
| 2026 Apr 29 17:57 | 2026 Apr 24 04:45:00 | 98.8427 | 0.00187 | 13.5186 | 62.2710 | 345.3370 | 14.31057 | – |
| 2026 Apr 28 17:56 | 2026 Apr 24 04:45:00 | 98.8427 | 0.00187 | 13.5186 | 62.2710 | 345.3370 | 14.31057 | – |
| 2026 Apr 27 17:58 | 2026 Apr 24 04:45:00 | 98.8427 | 0.00187 | 13.5186 | 62.2710 | 345.3370 | 14.31057 | – |
| 2026 Apr 26 17:58 | 2026 Apr 24 04:45:00 | 98.8427 | 0.00187 | 13.5186 | 62.2710 | 345.3370 | 14.31057 | – |
| 2026 Apr 25 17:58 | 2026 Apr 24 04:45:00 | 98.8427 | 0.00187 | 13.5186 | 62.2710 | 345.3370 | 14.31057 | – |
| 2026 Apr 24 17:59 | 2026 Apr 24 04:45:00 | 98.8427 | 0.00187 | 13.5186 | 62.2710 | 345.3370 | 14.31057 | – |
| 2026 Apr 23 17:57 | 2026 Apr 19 05:34:19 | 98.8427 | 0.00192 | 13.1818 | 76.2450 | 345.3370 | 14.31057 | – |
| 2026 Apr 22 17:57 | 2026 Apr 19 05:34:19 | 98.8427 | 0.00192 | 13.1818 | 76.2450 | 345.3370 | 14.31057 | – |
| 2026 Apr 21 17:57 | 2026 Apr 19 05:34:19 | 98.8427 | 0.00192 | 13.1818 | 76.2450 | 345.3370 | 14.31057 | – |
| 2026 Apr 20 17:57 | 2026 Apr 19 05:34:19 | 98.8427 | 0.00192 | 13.1818 | 76.2450 | 345.3370 | 14.31057 | – |
| 2026 Apr 19 17:58 | 2026 Apr 19 05:34:19 | 98.8427 | 0.00192 | 13.1818 | 76.2450 | 345.3370 | 14.31057 | – |
| 2026 Apr 18 17:56 | 2026 Apr 13 05:15:55 | 98.8423 | 0.00198 | 12.7740 | 92.7821 | 345.3370 | 14.31057 | – |
| 2026 Apr 16 17:57 | 2026 Apr 13 05:15:55 | 98.8423 | 0.00198 | 12.7740 | 92.7821 | 345.3370 | 14.31057 | – |
| 2026 Apr 14 17:57 | 2026 Apr 13 05:15:55 | 98.8423 | 0.00198 | 12.7740 | 92.7821 | 345.3370 | 14.31057 | – |
| 2026 Apr 13 17:57 | 2026 Apr 13 05:15:55 | 98.8423 | 0.00198 | 12.7740 | 92.7821 | 345.3370 | 14.31057 | – |
| 2026 Apr 12 17:57 | 2026 Apr 08 04:36:00 | 98.8417 | 0.00202 | 12.4331 | 106.3549 | 345.3370 | 14.31057 | – |
| 2026 Apr 11 17:57 | 2026 Apr 08 04:36:00 | 98.8417 | 0.00202 | 12.4331 | 106.3549 | 345.3370 | 14.31057 | – |